Tahiti, French Polynesia

11:48 AM TAHT on August 21, 2014 (GMT -1000)
Faaa | Change Station
CLOSE
Current Station
Airport
Location: Tahiti,
Elevation: 7 ft
Nearby Weather Stations

Elev 7 ft 17.56 °S, 149.61 °W | Updated 18 minutes ago

Partly Cloudy
Partly Cloudy
82 °F
Feels Like 86 °F
N
6
Wind Variable Wind from NW

Today
High -- | Low -- °F
--% Chance of Precip.
Yesterday
High -- | Low -- °F
Precip. -- in
6:13 AM 5:49 PM
Waning Crescent, 12% visible
Pressure 29.98 in
Visibility 6.2 miles
Clouds Few 2100 ft
Heat Index 86 °F
Dew Point 70 °F
Humidity 66%
Rainfall 0.00 in
Snow Depth Not available.
UV 9 out of 12
Pollen Not available.
Air Quality Not available.
Flu Activity Not available.
METAR NTAA 212130Z 31005KT 9999 FEW021 28/21 Q1015 NOSIG

More Conditions Fewer Conditions

Pressure 29.98 in
Visibility 6.2 miles
Clouds Few 2100 ft
Heat Index 86 °F
Dew Point 70 °F
Humidity 66%
Rainfall 0.00 in
Snow Depth Not available.
UV 9 out of 12
Pollen Not available.
Air Quality Not available.
Flu Activity Not available.
METAR NTAA 212130Z 31005KT 9999 FEW021 28/21 Q1015 NOSIG

More Conditions Fewer Conditions

10-Day Weather Forecast

Almanac

Astronomy

Aug. 21, 2014 Rise Set
Actual Time 6:13 AM TAHT 5:49 PM TAHT
Civil Twilight 5:51 AM TAHT 6:11 PM TAHT
Nautical Twilight 5:25 AM TAHT 6:37 PM TAHT
Astronomical Twilight 5:00 AM TAHT 7:02 PM TAHT
Moon 3:22 AM TAHT 2:58 PM TAHT
Length of Visible Light 12h 20m
Length of Day
11h 36m
Tomorrow will be 0m 52s longer.
Waning Crescent, 12% of the Moon is Illuminated
Today
Waning Crescent
Aug 25
New
Sep 2
First Quarter
Sep 8
Full
Sep 15
Last Quarter

Today's Extremes

Country Highs Country Lows

Community

WunderPhotos

Upload Photos

1,746,021 photos uploaded!

WunderBlogs® & News

Nearby

Snow Depth

Not available.

Earthquake Activity

City Distance Mag. Time & Date
No recent earthquake activity has been reported nearby.
Minimum magnitude displayed is 2.5.

Coastal Water Temperatures

Place Temperature
No Stations Reporting

Nearby Weather Stations